Startpagina
METAR-TAF:

METAR-TAF

Vliegvelden :

Aéroport de Toulouse-Blagnac

Toulouse, Frankrijk

breedte: 43-38N, lengte: 001-22E, hoogte: 152 m

Actueel weer

Dit bericht is 10 minuten geleden gemaakt, om 00:00 UTC
Wind 12 kt uit het westen
Temperatuur 24°C
Vochtigheid 65%
Druk 1019 hPa
Zicht 10 km of meer
geen wolken onder 1500 m en geen cumulonimbus

METAR: LFBO 150000Z AUTO 27012KT CAVOK 24/17 Q1019 NOSIG

Tijdstip: 02:10 (00:10 UTC)

Verwachting

Dit bericht is 1 uur en het 10 minuten geleden gemaakt, om 23:00 UTC
Verwachting geldig van 15 om 00 UTC tot 16 om 06 UTC
Wind 6 kt uit het westnoordwesten
Zicht 10 km of meer
geen wolken onder 1500 m en geen cumulonimbus
Wijzigt naar
van 16 om 04 UTC tot 16 om 06 UTC
Wind 8 kt uit het zuidoosten

TAF: LFBO 142300Z 1500/1606 29006KT CAVOK BECMG 1604/1606 14008KT

Waarnemingen en weersverwachtingen van meer dan 4000 vliegvelden (METAR en TAF).

De beschikbare stations zijn de gele en rode punten op de kaart.

Ga met uw muis naar het station om de naam te zien.

Klik dan om waarnemingen en weersverwachtingen te zien.

kaart wijzigen: klik op de groene knoppen met een zwart kruis om in te zoomen, op de groene knop met een streepje om uit te zoomen of op de groene pijlen voor aangrenzende kaarten.


METAR-TAF: